Athens, Wisconsin
Current Conditions -  °F | °C
As of 8:15 PM on Tuesday 21 Oct 2014 (Local Time) from KMDZ Reporting Station
Clear Clear  
Wind Chill: 36°   Ceiling: Unl
Heat Index: 36°   Visibility: 10mi
Dew Point: 33°   Wind: 0mph
Humidity: 89%   Direction: NA
Pressure: 30.22"   Gusts: NA
Location:  45.03°N, 90.07°W
Report Text: KMDZ 220115Z AUTO 00000KT 10SM CLR 02/00 A3022 RMK AO2 T00210004
Loading
Personal Weather Stations






























Interactive Weather Map
Tropical Storm Tracking
New forecast layout! Learn more

10-Day Weather Forecast

Advertisements
Track Severe Weather on mobile